Camden, North Carolina
Current Conditions -  °F | °C
As of 9:54 PM on Tuesday 25 Nov 2014 (Local Time) from KECG Reporting Station
Light Rain Light Rain  
Wind Chill: 57°   Ceiling: 6000
Heat Index: 57°   Visibility: 7mi
Dew Point: 52°   Wind: 3mph
Humidity: 83%   Direction: 40°NE
Pressure: 30.11"   Gusts: NA
Location:  36.33°N, 76.17°W
Report Text: KECG 260254Z 04003KT 7SM -RA BKN060 BKN075 OVC100 14/11 A3011 RMK AO2 RAB0156 SLP195 P0004 60004 T01390111 50006
Loading
Personal Weather Stations






























Interactive Weather Map New forecast layout! Learn more

10-Day Weather Forecast

Advertisements
Track Severe Weather on mobile